createdAt,value
2023-12-09T00:00:26.301Z,7.10
2023-12-09T00:07:26.602Z,7.10
2023-12-09T00:14:27.005Z,7.20
2023-12-09T00:21:28.230Z,7.20
2023-12-09T00:28:28.567Z,7.20
2023-12-09T00:35:28.827Z,7.20
2023-12-09T00:42:29.539Z,7.20
2023-12-09T00:49:30.595Z,7.20
2023-12-09T00:56:34.606Z,7.20
2023-12-09T01:03:36.306Z,7.20
2023-12-09T01:10:36.530Z,7.10
2023-12-09T01:17:37.012Z,7.10
2023-12-09T01:24:37.524Z,7.00
2023-12-09T01:31:38.075Z,7.00
2023-12-09T01:38:38.417Z,6.90
2023-12-09T01:45:39.059Z,6.90
2023-12-09T01:52:39.411Z,6.90
2023-12-09T01:59:39.726Z,6.90
2023-12-09T02:06:41.670Z,7.00
2023-12-09T02:14:00.579Z,7.00
2023-12-09T02:21:00.941Z,7.00
2023-12-09T02:28:06.740Z,7.00
2023-12-09T02:35:09.306Z,7.00
2023-12-09T02:42:10.795Z,7.00
2023-12-09T02:49:12.095Z,6.90
2023-12-09T02:56:12.468Z,6.80
2023-12-09T03:03:12.892Z,6.80
2023-12-09T03:10:13.304Z,6.70
2023-12-09T03:17:15.015Z,6.60
2023-12-09T03:24:15.637Z,6.60
2023-12-09T03:31:16.918Z,6.50
2023-12-09T03:38:17.375Z,6.50
2023-12-09T03:45:17.897Z,6.40
2023-12-09T03:52:19.128Z,6.40
2023-12-09T03:59:19.848Z,6.30
2023-12-09T04:06:20.385Z,6.20
2023-12-09T04:13:20.828Z,6.10
2023-12-09T04:20:21.351Z,6.10
2023-12-09T04:27:21.992Z,5.90
2023-12-09T04:34:22.121Z,5.80
2023-12-09T04:41:23.557Z,5.80
2023-12-09T04:48:23.689Z,5.70
2023-12-09T04:55:25.144Z,5.70
2023-12-09T05:02:25.963Z,5.60
2023-12-09T05:09:26.744Z,5.50
2023-12-09T05:16:28.874Z,5.50
2023-12-09T05:23:29.063Z,5.40
2023-12-09T05:30:29.538Z,5.40
2023-12-09T05:37:30.174Z,5.40
2023-12-09T05:44:30.608Z,5.40
2023-12-09T05:51:31.188Z,5.40
2023-12-09T05:58:31.890Z,5.40
2023-12-09T06:05:32.099Z,5.40
2023-12-09T06:12:33.374Z,5.40
2023-12-09T06:19:33.639Z,5.40
2023-12-09T06:26:33.784Z,5.40
2023-12-09T06:33:35.244Z,5.50
2023-12-09T06:40:35.875Z,5.50
2023-12-09T06:47:36.542Z,5.50
2023-12-09T06:54:37.390Z,5.50
2023-12-09T07:01:37.910Z,5.50
2023-12-09T07:08:38.275Z,5.40
2023-12-09T07:15:38.793Z,5.40
2023-12-09T07:22:39.325Z,5.40
2023-12-09T07:29:39.969Z,5.40
2023-12-09T07:36:40.495Z,5.40
2023-12-09T07:43:41.214Z,5.40
2023-12-09T07:50:41.668Z,5.40
2023-12-09T07:57:41.899Z,5.40
2023-12-09T08:04:42.456Z,5.50
2023-12-09T08:11:42.841Z,5.50
2023-12-09T08:18:44.226Z,5.60
2023-12-09T08:25:44.842Z,5.70
2023-12-09T08:32:45.426Z,5.80
2023-12-09T08:39:45.994Z,5.90
2023-12-09T08:46:46.602Z,6.00
2023-12-09T08:53:47.068Z,6.20
2023-12-09T09:00:50.089Z,6.30
2023-12-09T09:07:52.697Z,6.40
2023-12-09T09:14:53.083Z,6.50
2023-12-09T09:21:53.870Z,6.60
2023-12-09T09:28:54.063Z,6.80
2023-12-09T09:35:55.868Z,6.90
2023-12-09T09:43:13.987Z,7.00
2023-12-09T09:50:16.592Z,7.10
2023-12-09T09:57:17.278Z,7.20
2023-12-09T10:04:17.763Z,7.30
2023-12-09T10:11:18.068Z,7.50
2023-12-09T10:18:22.134Z,7.60
2023-12-09T10:25:25.628Z,7.70
2023-12-09T10:32:27.515Z,7.70
2023-12-09T10:39:28.027Z,7.90
2023-12-09T10:46:28.487Z,8.10
2023-12-09T10:53:28.835Z,8.30
2023-12-09T11:00:31.324Z,8.60
2023-12-09T11:07:35.063Z,8.70
2023-12-09T11:14:37.940Z,8.80
2023-12-09T11:21:38.363Z,8.80
2023-12-09T11:28:38.694Z,8.80
2023-12-09T11:35:39.609Z,8.80
2023-12-09T11:42:39.934Z,8.80
2023-12-09T11:49:41.662Z,8.90
2023-12-09T11:56:41.930Z,8.90
2023-12-09T12:03:42.395Z,9.00
2023-12-09T12:10:43.199Z,9.00
2023-12-09T12:17:43.536Z,9.00
2023-12-09T12:24:44.659Z,9.10
2023-12-09T12:31:45.066Z,9.10
2023-12-09T12:38:47.773Z,9.10
2023-12-09T12:45:49.944Z,9.00
2023-12-09T12:52:50.390Z,9.00
2023-12-09T12:59:51.321Z,8.90
2023-12-09T13:06:51.809Z,8.80
2023-12-09T13:13:52.170Z,8.80
2023-12-09T13:20:53.351Z,8.70
2023-12-09T13:27:53.505Z,8.60
2023-12-09T13:34:54.081Z,8.50
2023-12-09T13:41:54.695Z,8.40
2023-12-09T13:48:55.651Z,8.40
2023-12-09T13:55:56.567Z,8.20
2023-12-09T14:02:57.296Z,8.20
2023-12-09T14:10:00.018Z,8.10
2023-12-09T14:17:00.770Z,8.00
2023-12-09T14:24:01.449Z,7.90
2023-12-09T14:31:02.081Z,7.80
2023-12-09T14:38:02.565Z,7.70
2023-12-09T14:45:03.327Z,7.70
2023-12-09T14:52:04.010Z,7.60
2023-12-09T14:59:04.497Z,7.60
2023-12-09T15:06:05.769Z,7.50
2023-12-09T15:13:06.499Z,7.50
2023-12-09T15:20:10.554Z,7.40
2023-12-09T15:27:11.197Z,7.30
2023-12-09T15:34:11.749Z,7.20
2023-12-09T15:41:12.728Z,7.20
2023-12-09T15:48:13.141Z,7.00
2023-12-09T15:55:13.535Z,7.00
2023-12-09T16:02:14.512Z,7.00
2023-12-09T16:09:16.076Z,7.00
2023-12-09T16:16:16.473Z,7.00
2023-12-09T16:23:17.077Z,7.00
2023-12-09T16:30:17.870Z,7.00
2023-12-09T16:37:18.634Z,7.00
2023-12-09T16:44:19.531Z,7.00
2023-12-09T16:51:20.010Z,7.00
2023-12-09T16:58:20.441Z,6.90
2023-12-09T17:05:20.968Z,7.00
2023-12-09T17:12:23.129Z,7.00
2023-12-09T17:19:24.345Z,7.00
2023-12-09T17:26:24.725Z,7.00
2023-12-09T17:33:25.310Z,7.00
2023-12-09T17:40:25.724Z,7.10
2023-12-09T17:47:26.274Z,7.10
2023-12-09T17:54:27.841Z,7.10
2023-12-09T18:01:29.033Z,7.20
2023-12-09T18:08:29.816Z,7.30
2023-12-09T18:15:31.613Z,7.30
2023-12-09T18:22:31.853Z,7.40
2023-12-09T18:29:32.553Z,7.30
2023-12-09T18:36:33.479Z,7.30
2023-12-09T18:43:36.694Z,7.40
2023-12-09T18:50:37.155Z,7.40
2023-12-09T18:57:37.689Z,7.40
2023-12-09T19:04:41.820Z,7.40
2023-12-09T19:11:43.134Z,7.50
2023-12-09T19:18:43.685Z,7.60
2023-12-09T19:25:43.976Z,7.60
2023-12-09T19:32:44.475Z,7.60
2023-12-09T19:39:45.456Z,7.60
2023-12-09T19:46:46.178Z,7.70
2023-12-09T19:53:46.508Z,7.70
2023-12-09T20:00:47.048Z,7.70
2023-12-09T20:07:47.397Z,7.80
2023-12-09T20:14:47.933Z,7.90
2023-12-09T20:21:49.921Z,8.00
2023-12-09T20:28:50.271Z,8.10
2023-12-09T20:35:50.906Z,8.10
2023-12-09T20:42:53.428Z,8.20
2023-12-09T20:49:54.124Z,8.30
2023-12-09T20:56:55.027Z,9.00
2023-12-09T21:03:55.257Z,9.50
2023-12-09T21:10:55.688Z,9.70
2023-12-09T21:17:56.188Z,9.90
2023-12-09T21:24:56.825Z,10.00
2023-12-09T21:31:57.372Z,9.90
2023-12-09T21:38:57.764Z,9.90
2023-12-09T21:45:58.365Z,9.90
2023-12-09T21:52:58.842Z,9.90
2023-12-09T21:59:59.680Z,9.80
2023-12-09T22:06:59.881Z,9.80
2023-12-09T22:14:00.399Z,9.80
2023-12-09T22:21:01.116Z,9.70
2023-12-09T22:28:01.193Z,9.70
2023-12-09T22:35:02.062Z,9.80
2023-12-09T22:42:02.575Z,9.80
2023-12-09T22:49:03.433Z,9.80
2023-12-09T22:56:12.816Z,9.90
2023-12-09T23:03:14.969Z,10.00
2023-12-09T23:10:15.632Z,10.00
2023-12-09T23:17:15.938Z,10.10
2023-12-09T23:24:16.601Z,10.10
2023-12-09T23:31:22.567Z,10.10
2023-12-09T23:38:29.189Z,10.10
2023-12-09T23:45:29.815Z,10.10
2023-12-09T23:52:30.598Z,10.20
2023-12-09T23:59:31.521Z,10.20
